sensor_id;sensor_type;location;lat;lon;timestamp;P1;durP1;ratioP1;P2;durP2;ratioP2
7340;SDS011;6870;50.944;6.932;2022-10-13T00:01:06;4.70;;;2.93;;
7340;SDS011;6870;50.944;6.932;2022-10-13T00:03:35;5.30;;;3.27;;
7340;SDS011;6870;50.944;6.932;2022-10-13T00:06:05;6.00;;;3.77;;
7340;SDS011;6870;50.944;6.932;2022-10-13T00:08:34;7.20;;;3.83;;
7340;SDS011;6870;50.944;6.932;2022-10-13T00:11:08;3.90;;;3.10;;
7340;SDS011;6870;50.944;6.932;2022-10-13T00:13:40;6.50;;;3.03;;
7340;SDS011;6870;50.944;6.932;2022-10-13T00:16:09;4.33;;;2.90;;
7340;SDS011;6870;50.944;6.932;2022-10-13T00:18:40;6.03;;;2.93;;
7340;SDS011;6870;50.944;6.932;2022-10-13T00:21:08;5.23;;;3.37;;
7340;SDS011;6870;50.944;6.932;2022-10-13T00:23:39;8.70;;;3.33;;
7340;SDS011;6870;50.944;6.932;2022-10-13T00:26:09;3.87;;;2.97;;
7340;SDS011;6870;50.944;6.932;2022-10-13T00:28:42;5.10;;;3.80;;
7340;SDS011;6870;50.944;6.932;2022-10-13T00:31:17;5.20;;;3.33;;
7340;SDS011;6870;50.944;6.932;2022-10-13T00:33:47;9.73;;;3.53;;
7340;SDS011;6870;50.944;6.932;2022-10-13T00:36:16;6.70;;;3.10;;
7340;SDS011;6870;50.944;6.932;2022-10-13T00:38:45;7.13;;;3.57;;
7340;SDS011;6870;50.944;6.932;2022-10-13T00:41:13;6.40;;;3.17;;
7340;SDS011;6870;50.944;6.932;2022-10-13T00:43:53;5.07;;;3.07;;
7340;SDS011;6870;50.944;6.932;2022-10-13T00:46:27;7.80;;;2.93;;
7340;SDS011;6870;50.944;6.932;2022-10-13T00:48:58;6.70;;;4.00;;
7340;SDS011;6870;50.944;6.932;2022-10-13T00:51:31;5.80;;;3.40;;
7340;SDS011;6870;50.944;6.932;2022-10-13T00:54:01;5.47;;;2.97;;
7340;SDS011;6870;50.944;6.932;2022-10-13T00:56:31;7.10;;;3.70;;
7340;SDS011;6870;50.944;6.932;2022-10-13T00:59:02;10.77;;;3.80;;
7340;SDS011;6870;50.944;6.932;2022-10-13T01:01:32;8.33;;;3.60;;
7340;SDS011;6870;50.944;6.932;2022-10-13T01:04:00;5.20;;;3.50;;
7340;SDS011;6870;50.944;6.932;2022-10-13T01:06:28;5.77;;;3.70;;
7340;SDS011;6870;50.944;6.932;2022-10-13T01:08:56;8.50;;;3.13;;
7340;SDS011;6870;50.944;6.932;2022-10-13T01:11:28;5.10;;;3.17;;
7340;SDS011;6870;50.944;6.932;2022-10-13T01:14:20;5.97;;;3.13;;
7340;SDS011;6870;50.944;6.932;2022-10-13T01:16:59;5.00;;;2.53;;
7340;SDS011;6870;50.944;6.932;2022-10-13T01:19:43;8.70;;;3.17;;
7340;SDS011;6870;50.944;6.932;2022-10-13T01:22:47;8.13;;;3.50;;
7340;SDS011;6870;50.944;6.932;2022-10-13T01:25:37;5.90;;;4.00;;
7340;SDS011;6870;50.944;6.932;2022-10-13T01:28:50;8.97;;;3.40;;
7340;SDS011;6870;50.944;6.932;2022-10-13T01:31:38;6.40;;;3.13;;
7340;SDS011;6870;50.944;6.932;2022-10-13T01:34:13;4.77;;;3.03;;
7340;SDS011;6870;50.944;6.932;2022-10-13T01:36:48;5.20;;;3.50;;
7340;SDS011;6870;50.944;6.932;2022-10-13T01:39:26;4.27;;;3.13;;
7340;SDS011;6870;50.944;6.932;2022-10-13T01:42:05;5.47;;;3.53;;
7340;SDS011;6870;50.944;6.932;2022-10-13T01:44:44;4.83;;;2.80;;
7340;SDS011;6870;50.944;6.932;2022-10-13T01:47:18;5.60;;;3.13;;
7340;SDS011;6870;50.944;6.932;2022-10-13T01:49:49;4.57;;;2.93;;
7340;SDS011;6870;50.944;6.932;2022-10-13T01:52:19;5.13;;;2.90;;
7340;SDS011;6870;50.944;6.932;2022-10-13T01:54:52;3.93;;;2.63;;
7340;SDS011;6870;50.944;6.932;2022-10-13T01:57:28;4.97;;;3.50;;
7340;SDS011;6870;50.944;6.932;2022-10-13T01:59:59;4.00;;;3.13;;
7340;SDS011;6870;50.944;6.932;2022-10-13T02:02:36;3.80;;;3.10;;
7340;SDS011;6870;50.944;6.932;2022-10-13T02:05:17;9.20;;;3.30;;
7340;SDS011;6870;50.944;6.932;2022-10-13T02:07:53;3.10;;;2.70;;
7340;SDS011;6870;50.944;6.932;2022-10-13T02:10:26;4.87;;;3.40;;
7340;SDS011;6870;50.944;6.932;2022-10-13T02:12:59;4.13;;;3.03;;
7340;SDS011;6870;50.944;6.932;2022-10-13T02:15:30;5.00;;;3.10;;
7340;SDS011;6870;50.944;6.932;2022-10-13T02:18:04;4.30;;;2.73;;
7340;SDS011;6870;50.944;6.932;2022-10-13T02:20:35;4.17;;;2.73;;
7340;SDS011;6870;50.944;6.932;2022-10-13T02:23:06;5.87;;;3.60;;
7340;SDS011;6870;50.944;6.932;2022-10-13T02:25:38;5.43;;;2.53;;
7340;SDS011;6870;50.944;6.932;2022-10-13T02:28:08;4.30;;;2.80;;
7340;SDS011;6870;50.944;6.932;2022-10-13T02:30:37;6.00;;;3.07;;
7340;SDS011;6870;50.944;6.932;2022-10-13T02:33:08;3.70;;;2.53;;
7340;SDS011;6870;50.944;6.932;2022-10-13T02:35:37;3.73;;;2.77;;
7340;SDS011;6870;50.944;6.932;2022-10-13T02:38:05;5.83;;;3.20;;
7340;SDS011;6870;50.944;6.932;2022-10-13T02:40:33;5.47;;;3.30;;
7340;SDS011;6870;50.944;6.932;2022-10-13T02:43:01;3.00;;;2.17;;
7340;SDS011;6870;50.944;6.932;2022-10-13T02:45:29;3.83;;;2.63;;
7340;SDS011;6870;50.944;6.932;2022-10-13T02:47:57;4.00;;;2.63;;
7340;SDS011;6870;50.944;6.932;2022-10-13T02:50:27;3.03;;;2.43;;
7340;SDS011;6870;50.944;6.932;2022-10-13T02:52:55;4.40;;;2.73;;
7340;SDS011;6870;50.944;6.932;2022-10-13T02:55:23;6.20;;;3.03;;
7340;SDS011;6870;50.944;6.932;2022-10-13T02:57:51;3.80;;;2.60;;
7340;SDS011;6870;50.944;6.932;2022-10-13T03:00:19;6.03;;;2.83;;
7340;SDS011;6870;50.944;6.932;2022-10-13T03:02:47;5.70;;;2.60;;
7340;SDS011;6870;50.944;6.932;2022-10-13T03:05:15;5.30;;;2.53;;
7340;SDS011;6870;50.944;6.932;2022-10-13T03:07:45;5.90;;;3.03;;
7340;SDS011;6870;50.944;6.932;2022-10-13T03:10:13;2.60;;;2.13;;
7340;SDS011;6870;50.944;6.932;2022-10-13T03:12:41;4.30;;;2.83;;
7340;SDS011;6870;50.944;6.932;2022-10-13T03:15:09;6.03;;;2.97;;
7340;SDS011;6870;50.944;6.932;2022-10-13T03:17:37;7.60;;;3.23;;
7340;SDS011;6870;50.944;6.932;2022-10-13T03:20:05;7.90;;;2.63;;
7340;SDS011;6870;50.944;6.932;2022-10-13T03:22:35;4.67;;;2.70;;
7340;SDS011;6870;50.944;6.932;2022-10-13T03:25:05;4.23;;;2.53;;
7340;SDS011;6870;50.944;6.932;2022-10-13T03:27:34;2.80;;;2.30;;
7340;SDS011;6870;50.944;6.932;2022-10-13T03:30:02;7.53;;;3.00;;
7340;SDS011;6870;50.944;6.932;2022-10-13T03:32:30;4.73;;;2.20;;
7340;SDS011;6870;50.944;6.932;2022-10-13T03:34:58;5.70;;;3.03;;
7340;SDS011;6870;50.944;6.932;2022-10-13T03:37:27;5.13;;;2.80;;
7340;SDS011;6870;50.944;6.932;2022-10-13T03:39:55;3.33;;;2.60;;
7340;SDS011;6870;50.944;6.932;2022-10-13T03:42:25;6.53;;;2.83;;
7340;SDS011;6870;50.944;6.932;2022-10-13T03:44:53;4.33;;;2.93;;
7340;SDS011;6870;50.944;6.932;2022-10-13T03:47:22;7.70;;;2.57;;
7340;SDS011;6870;50.944;6.932;2022-10-13T03:49:50;4.63;;;2.83;;
7340;SDS011;6870;50.944;6.932;2022-10-13T03:52:19;4.63;;;2.93;;
7340;SDS011;6870;50.944;6.932;2022-10-13T03:54:48;4.57;;;2.53;;
7340;SDS011;6870;50.944;6.932;2022-10-13T03:57:16;3.80;;;2.10;;
7340;SDS011;6870;50.944;6.932;2022-10-13T03:59:45;3.50;;;2.20;;
7340;SDS011;6870;50.944;6.932;2022-10-13T04:02:13;3.23;;;2.40;;
7340;SDS011;6870;50.944;6.932;2022-10-13T04:04:41;3.50;;;2.13;;
7340;SDS011;6870;50.944;6.932;2022-10-13T04:07:09;4.77;;;2.20;;
7340;SDS011;6870;50.944;6.932;2022-10-13T04:09:37;3.33;;;2.30;;
7340;SDS011;6870;50.944;6.932;2022-10-13T04:12:05;4.53;;;2.80;;
7340;SDS011;6870;50.944;6.932;2022-10-13T04:14:33;4.07;;;2.73;;
7340;SDS011;6870;50.944;6.932;2022-10-13T04:17:03;3.40;;;2.40;;
7340;SDS011;6870;50.944;6.932;2022-10-13T04:19:31;4.00;;;2.17;;
7340;SDS011;6870;50.944;6.932;2022-10-13T04:21:59;3.50;;;2.73;;
7340;SDS011;6870;50.944;6.932;2022-10-13T04:24:27;3.27;;;2.97;;
7340;SDS011;6870;50.944;6.932;2022-10-13T04:26:55;6.30;;;3.00;;
7340;SDS011;6870;50.944;6.932;2022-10-13T04:29:23;4.90;;;3.90;;
7340;SDS011;6870;50.944;6.932;2022-10-13T04:31:51;9.80;;;4.27;;
7340;SDS011;6870;50.944;6.932;2022-10-13T04:34:20;4.90;;;3.97;;
7340;SDS011;6870;50.944;6.932;2022-10-13T04:36:48;9.20;;;4.30;;
7340;SDS011;6870;50.944;6.932;2022-10-13T04:39:17;7.57;;;4.70;;
7340;SDS011;6870;50.944;6.932;2022-10-13T04:41:45;6.60;;;4.60;;
7340;SDS011;6870;50.944;6.932;2022-10-13T04:44:13;8.70;;;4.30;;
7340;SDS011;6870;50.944;6.932;2022-10-13T04:46:41;9.20;;;4.23;;
7340;SDS011;6870;50.944;6.932;2022-10-13T04:49:09;6.10;;;4.60;;
7340;SDS011;6870;50.944;6.932;2022-10-13T04:51:38;5.20;;;4.00;;
7340;SDS011;6870;50.944;6.932;2022-10-13T04:54:06;6.27;;;3.97;;
7340;SDS011;6870;50.944;6.932;2022-10-13T04:56:35;6.90;;;4.77;;
7340;SDS011;6870;50.944;6.932;2022-10-13T04:59:03;5.30;;;4.03;;
7340;SDS011;6870;50.944;6.932;2022-10-13T05:01:31;6.77;;;4.30;;
7340;SDS011;6870;50.944;6.932;2022-10-13T05:04:01;5.80;;;3.97;;
7340;SDS011;6870;50.944;6.932;2022-10-13T05:06:32;6.43;;;4.10;;
7340;SDS011;6870;50.944;6.932;2022-10-13T05:09:15;9.40;;;4.03;;
7340;SDS011;6870;50.944;6.932;2022-10-13T05:11:43;12.33;;;4.30;;
7340;SDS011;6870;50.944;6.932;2022-10-13T05:14:11;6.40;;;4.53;;
7340;SDS011;6870;50.944;6.932;2022-10-13T05:16:39;4.20;;;3.40;;
7340;SDS011;6870;50.944;6.932;2022-10-13T05:19:07;8.57;;;4.50;;
7340;SDS011;6870;50.944;6.932;2022-10-13T05:21:35;10.27;;;3.97;;
7340;SDS011;6870;50.944;6.932;2022-10-13T05:24:03;7.70;;;3.60;;
7340;SDS011;6870;50.944;6.932;2022-10-13T05:26:34;7.50;;;4.10;;
7340;SDS011;6870;50.944;6.932;2022-10-13T05:29:02;5.43;;;4.23;;
7340;SDS011;6870;50.944;6.932;2022-10-13T05:31:31;5.73;;;3.60;;
7340;SDS011;6870;50.944;6.932;2022-10-13T05:34:01;6.60;;;4.90;;
7340;SDS011;6870;50.944;6.932;2022-10-13T05:36:29;5.70;;;3.57;;
7340;SDS011;6870;50.944;6.932;2022-10-13T05:39:00;6.83;;;3.90;;
7340;SDS011;6870;50.944;6.932;2022-10-13T05:41:31;4.50;;;3.80;;
7340;SDS011;6870;50.944;6.932;2022-10-13T05:44:01;6.20;;;3.60;;
7340;SDS011;6870;50.944;6.932;2022-10-13T05:46:31;5.77;;;3.93;;
7340;SDS011;6870;50.944;6.932;2022-10-13T05:48:59;5.50;;;3.33;;
7340;SDS011;6870;50.944;6.932;2022-10-13T05:51:29;8.50;;;4.40;;
7340;SDS011;6870;50.944;6.932;2022-10-13T05:54:01;4.70;;;3.30;;
7340;SDS011;6870;50.944;6.932;2022-10-13T05:56:34;4.87;;;3.67;;
7340;SDS011;6870;50.944;6.932;2022-10-13T05:59:08;5.40;;;3.80;;
7340;SDS011;6870;50.944;6.932;2022-10-13T06:01:40;5.87;;;3.80;;
7340;SDS011;6870;50.944;6.932;2022-10-13T06:04:10;6.10;;;3.40;;
7340;SDS011;6870;50.944;6.932;2022-10-13T06:06:43;5.30;;;3.60;;
7340;SDS011;6870;50.944;6.932;2022-10-13T06:09:12;5.23;;;3.93;;
7340;SDS011;6870;50.944;6.932;2022-10-13T06:11:40;5.93;;;3.57;;
7340;SDS011;6870;50.944;6.932;2022-10-13T06:14:09;5.77;;;3.67;;
7340;SDS011;6870;50.944;6.932;2022-10-13T06:16:37;5.27;;;3.80;;
7340;SDS011;6870;50.944;6.932;2022-10-13T06:19:06;4.57;;;3.37;;
7340;SDS011;6870;50.944;6.932;2022-10-13T06:21:34;4.10;;;3.30;;
7340;SDS011;6870;50.944;6.932;2022-10-13T06:24:02;5.30;;;3.20;;
7340;SDS011;6870;50.944;6.932;2022-10-13T06:26:30;3.73;;;3.40;;
7340;SDS011;6870;50.944;6.932;2022-10-13T06:28:58;4.80;;;3.30;;
7340;SDS011;6870;50.944;6.932;2022-10-13T06:31:28;7.70;;;3.37;;
7340;SDS011;6870;50.944;6.932;2022-10-13T06:33:56;6.60;;;4.77;;
7340;SDS011;6870;50.944;6.932;2022-10-13T06:36:25;5.00;;;3.80;;
7340;SDS011;6870;50.944;6.932;2022-10-13T06:38:53;5.23;;;3.30;;
7340;SDS011;6870;50.944;6.932;2022-10-13T06:41:21;4.60;;;3.20;;
7340;SDS011;6870;50.944;6.932;2022-10-13T06:43:49;6.30;;;3.60;;
7340;SDS011;6870;50.944;6.932;2022-10-13T06:46:17;9.30;;;3.60;;
7340;SDS011;6870;50.944;6.932;2022-10-13T06:48:48;9.17;;;3.27;;
7340;SDS011;6870;50.944;6.932;2022-10-13T06:51:17;3.63;;;3.13;;
7340;SDS011;6870;50.944;6.932;2022-10-13T06:53:45;4.50;;;3.30;;
7340;SDS011;6870;50.944;6.932;2022-10-13T06:56:13;7.07;;;3.23;;
7340;SDS011;6870;50.944;6.932;2022-10-13T06:58:41;5.30;;;3.33;;
7340;SDS011;6870;50.944;6.932;2022-10-13T07:01:10;4.07;;;3.53;;
7340;SDS011;6870;50.944;6.932;2022-10-13T07:03:40;5.87;;;3.53;;
7340;SDS011;6870;50.944;6.932;2022-10-13T07:06:09;4.63;;;3.30;;
7340;SDS011;6870;50.944;6.932;2022-10-13T07:08:37;8.33;;;3.27;;
7340;SDS011;6870;50.944;6.932;2022-10-13T07:11:06;5.63;;;2.60;;
7340;SDS011;6870;50.944;6.932;2022-10-13T07:13:41;6.70;;;3.43;;
7340;SDS011;6870;50.944;6.932;2022-10-13T07:16:12;5.33;;;3.50;;
7340;SDS011;6870;50.944;6.932;2022-10-13T07:18:41;6.40;;;3.73;;
7340;SDS011;6870;50.944;6.932;2022-10-13T07:21:10;3.40;;;3.10;;
7340;SDS011;6870;50.944;6.932;2022-10-13T07:23:38;3.70;;;2.83;;
7340;SDS011;6870;50.944;6.932;2022-10-13T07:26:07;3.60;;;3.03;;
7340;SDS011;6870;50.944;6.932;2022-10-13T07:28:36;5.10;;;3.23;;
7340;SDS011;6870;50.944;6.932;2022-10-13T07:31:06;4.17;;;3.13;;
7340;SDS011;6870;50.944;6.932;2022-10-13T07:33:37;3.83;;;2.60;;
7340;SDS011;6870;50.944;6.932;2022-10-13T07:36:05;3.60;;;2.70;;
7340;SDS011;6870;50.944;6.932;2022-10-13T07:38:35;6.80;;;3.23;;
7340;SDS011;6870;50.944;6.932;2022-10-13T07:41:05;5.97;;;3.43;;
7340;SDS011;6870;50.944;6.932;2022-10-13T07:43:36;4.90;;;3.43;;
7340;SDS011;6870;50.944;6.932;2022-10-13T07:46:05;7.13;;;3.40;;
7340;SDS011;6870;50.944;6.932;2022-10-13T07:48:34;6.10;;;3.67;;
7340;SDS011;6870;50.944;6.932;2022-10-13T07:51:03;6.03;;;3.60;;
7340;SDS011;6870;50.944;6.932;2022-10-13T07:53:33;4.83;;;3.33;;
7340;SDS011;6870;50.944;6.932;2022-10-13T07:56:03;6.57;;;3.20;;
7340;SDS011;6870;50.944;6.932;2022-10-13T07:58:35;3.77;;;2.67;;
7340;SDS011;6870;50.944;6.932;2022-10-13T08:01:05;5.73;;;3.97;;
7340;SDS011;6870;50.944;6.932;2022-10-13T08:03:33;4.23;;;3.20;;
7340;SDS011;6870;50.944;6.932;2022-10-13T08:06:07;6.13;;;4.10;;
7340;SDS011;6870;50.944;6.932;2022-10-13T08:08:35;5.67;;;3.70;;
7340;SDS011;6870;50.944;6.932;2022-10-13T08:11:07;10.20;;;4.33;;
7340;SDS011;6870;50.944;6.932;2022-10-13T08:13:44;7.87;;;3.50;;
7340;SDS011;6870;50.944;6.932;2022-10-13T08:16:14;4.50;;;3.47;;
7340;SDS011;6870;50.944;6.932;2022-10-13T08:18:42;11.40;;;4.00;;
7340;SDS011;6870;50.944;6.932;2022-10-13T08:21:11;6.60;;;4.10;;
7340;SDS011;6870;50.944;6.932;2022-10-13T08:24:03;7.53;;;4.90;;
7340;SDS011;6870;50.944;6.932;2022-10-13T08:26:33;5.10;;;3.97;;
7340;SDS011;6870;50.944;6.932;2022-10-13T08:29:01;5.33;;;4.23;;
7340;SDS011;6870;50.944;6.932;2022-10-13T08:31:50;8.13;;;3.80;;
7340;SDS011;6870;50.944;6.932;2022-10-13T08:34:19;9.73;;;4.27;;
7340;SDS011;6870;50.944;6.932;2022-10-13T08:36:48;7.87;;;4.53;;
7340;SDS011;6870;50.944;6.932;2022-10-13T08:39:18;6.30;;;4.90;;
7340;SDS011;6870;50.944;6.932;2022-10-13T08:41:49;4.70;;;4.17;;
7340;SDS011;6870;50.944;6.932;2022-10-13T08:44:22;12.33;;;4.60;;
7340;SDS011;6870;50.944;6.932;2022-10-13T08:47:22;5.27;;;4.40;;
7340;SDS011;6870;50.944;6.932;2022-10-13T08:50:02;5.93;;;4.67;;
7340;SDS011;6870;50.944;6.932;2022-10-13T08:52:47;6.70;;;3.80;;
7340;SDS011;6870;50.944;6.932;2022-10-13T08:55:22;8.80;;;4.40;;
7340;SDS011;6870;50.944;6.932;2022-10-13T08:57:55;11.47;;;4.10;;
7340;SDS011;6870;50.944;6.932;2022-10-13T09:00:24;9.23;;;4.60;;
7340;SDS011;6870;50.944;6.932;2022-10-13T09:02:53;8.80;;;4.23;;
7340;SDS011;6870;50.944;6.932;2022-10-13T09:05:35;3.87;;;3.57;;
7340;SDS011;6870;50.944;6.932;2022-10-13T09:08:10;5.10;;;4.43;;
7340;SDS011;6870;50.944;6.932;2022-10-13T09:10:45;6.13;;;3.87;;
7340;SDS011;6870;50.944;6.932;2022-10-13T09:13:17;7.90;;;4.87;;
7340;SDS011;6870;50.944;6.932;2022-10-13T09:15:47;13.67;;;4.67;;
7340;SDS011;6870;50.944;6.932;2022-10-13T09:18:16;7.77;;;4.67;;
7340;SDS011;6870;50.944;6.932;2022-10-13T09:20:44;6.70;;;3.87;;
7340;SDS011;6870;50.944;6.932;2022-10-13T09:23:16;8.20;;;4.37;;
7340;SDS011;6870;50.944;6.932;2022-10-13T09:25:46;5.70;;;3.90;;
7340;SDS011;6870;50.944;6.932;2022-10-13T09:28:19;25.53;;;4.70;;
7340;SDS011;6870;50.944;6.932;2022-10-13T09:30:59;24.07;;;5.57;;
7340;SDS011;6870;50.944;6.932;2022-10-13T09:33:35;8.03;;;4.67;;
7340;SDS011;6870;50.944;6.932;2022-10-13T09:36:05;14.43;;;4.63;;
7340;SDS011;6870;50.944;6.932;2022-10-13T09:38:38;10.53;;;4.77;;
7340;SDS011;6870;50.944;6.932;2022-10-13T09:41:13;9.00;;;4.33;;
7340;SDS011;6870;50.944;6.932;2022-10-13T09:46:44;7.03;;;4.67;;
7340;SDS011;6870;50.944;6.932;2022-10-13T09:49:27;14.60;;;5.67;;
7340;SDS011;6870;50.944;6.932;2022-10-13T09:52:01;23.37;;;5.83;;
7340;SDS011;6870;50.944;6.932;2022-10-13T09:54:36;10.23;;;4.33;;
7340;SDS011;6870;50.944;6.932;2022-10-13T09:57:14;7.80;;;4.87;;
7340;SDS011;6870;50.944;6.932;2022-10-13T09:59:53;8.77;;;4.97;;
7340;SDS011;6870;50.944;6.932;2022-10-13T10:02:32;11.43;;;4.47;;
7340;SDS011;6870;50.944;6.932;2022-10-13T10:05:05;14.13;;;4.07;;
7340;SDS011;6870;50.944;6.932;2022-10-13T10:07:42;6.30;;;4.67;;
7340;SDS011;6870;50.944;6.932;2022-10-13T10:10:12;9.30;;;4.57;;
7340;SDS011;6870;50.944;6.932;2022-10-13T10:12:53;4.47;;;4.00;;
7340;SDS011;6870;50.944;6.932;2022-10-13T10:15:23;7.73;;;4.90;;
7340;SDS011;6870;50.944;6.932;2022-10-13T10:17:59;12.37;;;5.47;;
7340;SDS011;6870;50.944;6.932;2022-10-13T10:20:41;10.63;;;4.60;;
7340;SDS011;6870;50.944;6.932;2022-10-13T10:23:26;6.37;;;4.23;;
7340;SDS011;6870;50.944;6.932;2022-10-13T10:26:04;8.97;;;4.27;;
7340;SDS011;6870;50.944;6.932;2022-10-13T10:28:49;9.20;;;4.53;;
7340;SDS011;6870;50.944;6.932;2022-10-13T10:31:41;6.70;;;4.37;;
7340;SDS011;6870;50.944;6.932;2022-10-13T10:34:30;9.20;;;5.50;;
7340;SDS011;6870;50.944;6.932;2022-10-13T10:37:10;7.63;;;3.83;;
7340;SDS011;6870;50.944;6.932;2022-10-13T10:39:50;8.43;;;4.40;;
7340;SDS011;6870;50.944;6.932;2022-10-13T10:42:41;7.00;;;4.10;;
7340;SDS011;6870;50.944;6.932;2022-10-13T10:45:25;7.10;;;5.00;;
7340;SDS011;6870;50.944;6.932;2022-10-13T10:47:57;7.30;;;4.63;;
7340;SDS011;6870;50.944;6.932;2022-10-13T10:50:28;9.47;;;6.10;;
7340;SDS011;6870;50.944;6.932;2022-10-13T10:52:59;9.13;;;5.40;;
7340;SDS011;6870;50.944;6.932;2022-10-13T10:55:31;9.70;;;6.07;;
7340;SDS011;6870;50.944;6.932;2022-10-13T10:58:07;10.10;;;6.20;;
7340;SDS011;6870;50.944;6.932;2022-10-13T11:00:48;9.03;;;6.27;;
7340;SDS011;6870;50.944;6.932;2022-10-13T11:03:27;15.30;;;6.60;;
7340;SDS011;6870;50.944;6.932;2022-10-13T11:06:20;8.20;;;6.43;;
7340;SDS011;6870;50.944;6.932;2022-10-13T11:08:52;9.03;;;5.97;;
7340;SDS011;6870;50.944;6.932;2022-10-13T11:11:34;11.83;;;6.40;;
7340;SDS011;6870;50.944;6.932;2022-10-13T11:14:24;13.00;;;6.70;;
7340;SDS011;6870;50.944;6.932;2022-10-13T11:17:09;18.17;;;7.63;;
7340;SDS011;6870;50.944;6.932;2022-10-13T11:19:45;10.70;;;7.33;;
7340;SDS011;6870;50.944;6.932;2022-10-13T11:22:16;18.60;;;8.00;;
7340;SDS011;6870;50.944;6.932;2022-10-13T11:24:54;13.67;;;7.50;;
7340;SDS011;6870;50.944;6.932;2022-10-13T11:27:39;13.20;;;6.67;;
7340;SDS011;6870;50.944;6.932;2022-10-13T11:36:38;8.67;;;5.87;;
7340;SDS011;6870;50.944;6.932;2022-10-13T11:42:59;12.07;;;4.90;;
7340;SDS011;6870;50.944;6.932;2022-10-13T11:45:46;10.90;;;6.10;;
7340;SDS011;6870;50.944;6.932;2022-10-13T11:51:59;13.07;;;6.97;;
7340;SDS011;6870;50.944;6.932;2022-10-13T11:55:00;12.60;;;6.40;;
7340;SDS011;6870;50.944;6.932;2022-10-13T11:57:32;8.07;;;5.17;;
7340;SDS011;6870;50.944;6.932;2022-10-13T12:00:00;9.90;;;5.63;;
7340;SDS011;6870;50.944;6.932;2022-10-13T12:02:29;7.43;;;5.83;;
7340;SDS011;6870;50.944;6.932;2022-10-13T12:05:01;9.50;;;5.90;;
7340;SDS011;6870;50.944;6.932;2022-10-13T12:07:34;9.10;;;5.03;;
7340;SDS011;6870;50.944;6.932;2022-10-13T12:10:06;7.30;;;5.27;;
7340;SDS011;6870;50.944;6.932;2022-10-13T12:12:35;12.10;;;6.00;;
7340;SDS011;6870;50.944;6.932;2022-10-13T12:17:55;8.37;;;5.10;;
7340;SDS011;6870;50.944;6.932;2022-10-13T12:20:23;6.33;;;4.60;;
7340;SDS011;6870;50.944;6.932;2022-10-13T12:22:55;9.43;;;5.20;;
7340;SDS011;6870;50.944;6.932;2022-10-13T12:25:24;10.00;;;5.50;;
7340;SDS011;6870;50.944;6.932;2022-10-13T12:27:56;6.03;;;5.30;;
7340;SDS011;6870;50.944;6.932;2022-10-13T12:30:27;7.80;;;5.60;;
7340;SDS011;6870;50.944;6.932;2022-10-13T12:32:57;7.13;;;5.10;;
7340;SDS011;6870;50.944;6.932;2022-10-13T12:35:27;8.13;;;5.17;;
7340;SDS011;6870;50.944;6.932;2022-10-13T12:37:59;7.27;;;5.07;;
7340;SDS011;6870;50.944;6.932;2022-10-13T12:40:30;9.73;;;5.60;;
7340;SDS011;6870;50.944;6.932;2022-10-13T12:42:58;5.80;;;4.17;;
7340;SDS011;6870;50.944;6.932;2022-10-13T12:45:28;8.63;;;5.30;;
7340;SDS011;6870;50.944;6.932;2022-10-13T12:47:59;8.57;;;5.07;;
7340;SDS011;6870;50.944;6.932;2022-10-13T12:50:31;5.37;;;4.50;;
7340;SDS011;6870;50.944;6.932;2022-10-13T12:53:08;7.50;;;4.73;;
7340;SDS011;6870;50.944;6.932;2022-10-13T12:55:49;6.73;;;4.73;;
7340;SDS011;6870;50.944;6.932;2022-10-13T12:58:25;7.77;;;4.60;;
7340;SDS011;6870;50.944;6.932;2022-10-13T13:00:56;5.60;;;4.40;;
7340;SDS011;6870;50.944;6.932;2022-10-13T13:03:32;9.37;;;4.87;;
7340;SDS011;6870;50.944;6.932;2022-10-13T13:06:20;6.43;;;4.67;;
7340;SDS011;6870;50.944;6.932;2022-10-13T13:12:03;5.43;;;4.30;;
7340;SDS011;6870;50.944;6.932;2022-10-13T13:14:53;10.60;;;4.80;;
7340;SDS011;6870;50.944;6.932;2022-10-13T13:17:31;7.50;;;3.80;;
7340;SDS011;6870;50.944;6.932;2022-10-13T13:20:20;6.13;;;4.73;;
7340;SDS011;6870;50.944;6.932;2022-10-13T13:22:53;9.80;;;4.10;;
7340;SDS011;6870;50.944;6.932;2022-10-13T13:25:23;5.53;;;4.20;;
7340;SDS011;6870;50.944;6.932;2022-10-13T13:27:52;6.33;;;4.20;;
7340;SDS011;6870;50.944;6.932;2022-10-13T13:30:20;9.00;;;4.37;;
7340;SDS011;6870;50.944;6.932;2022-10-13T13:32:50;6.73;;;4.40;;
7340;SDS011;6870;50.944;6.932;2022-10-13T13:35:18;5.13;;;4.33;;
7340;SDS011;6870;50.944;6.932;2022-10-13T13:37:46;5.20;;;3.60;;
7340;SDS011;6870;50.944;6.932;2022-10-13T13:40:17;9.83;;;3.97;;
7340;SDS011;6870;50.944;6.932;2022-10-13T13:42:49;4.90;;;3.90;;
7340;SDS011;6870;50.944;6.932;2022-10-13T13:45:18;4.40;;;3.80;;
7340;SDS011;6870;50.944;6.932;2022-10-13T13:47:49;5.13;;;4.47;;
7340;SDS011;6870;50.944;6.932;2022-10-13T13:50:22;6.03;;;4.00;;
7340;SDS011;6870;50.944;6.932;2022-10-13T13:52:52;7.37;;;4.53;;
7340;SDS011;6870;50.944;6.932;2022-10-13T13:55:20;3.90;;;3.03;;
7340;SDS011;6870;50.944;6.932;2022-10-13T13:57:50;5.20;;;3.33;;
7340;SDS011;6870;50.944;6.932;2022-10-13T14:00:17;5.20;;;3.90;;
7340;SDS011;6870;50.944;6.932;2022-10-13T14:02:46;5.53;;;4.38;;
7340;SDS011;6870;50.944;6.932;2022-10-13T14:05:14;6.43;;;3.50;;
7340;SDS011;6870;50.944;6.932;2022-10-13T14:07:42;10.20;;;3.80;;
7340;SDS011;6870;50.944;6.932;2022-10-13T14:10:10;11.10;;;8.03;;
7340;SDS011;6870;50.944;6.932;2022-10-13T14:12:38;11.03;;;7.93;;
7340;SDS011;6870;50.944;6.932;2022-10-13T14:15:08;12.00;;;9.90;;
7340;SDS011;6870;50.944;6.932;2022-10-13T14:17:37;9.97;;;8.00;;
7340;SDS011;6870;50.944;6.932;2022-10-13T14:20:05;9.43;;;8.00;;
7340;SDS011;6870;50.944;6.932;2022-10-13T14:22:35;10.07;;;8.80;;
7340;SDS011;6870;50.944;6.932;2022-10-13T14:25:04;14.47;;;8.77;;
7340;SDS011;6870;50.944;6.932;2022-10-13T14:27:34;12.97;;;9.23;;
7340;SDS011;6870;50.944;6.932;2022-10-13T14:30:02;12.93;;;10.37;;
7340;SDS011;6870;50.944;6.932;2022-10-13T14:32:33;10.77;;;8.60;;
7340;SDS011;6870;50.944;6.932;2022-10-13T14:35:03;12.38;;;7.85;;
7340;SDS011;6870;50.944;6.932;2022-10-13T14:37:32;9.70;;;8.10;;
7340;SDS011;6870;50.944;6.932;2022-10-13T14:40:01;19.80;;;7.70;;
7340;SDS011;6870;50.944;6.932;2022-10-13T14:42:29;10.73;;;7.30;;
7340;SDS011;6870;50.944;6.932;2022-10-13T14:44:57;10.03;;;6.47;;
7340;SDS011;6870;50.944;6.932;2022-10-13T14:47:25;10.73;;;6.80;;
7340;SDS011;6870;50.944;6.932;2022-10-13T14:49:55;11.67;;;6.70;;
7340;SDS011;6870;50.944;6.932;2022-10-13T14:52:23;11.37;;;6.40;;
7340;SDS011;6870;50.944;6.932;2022-10-13T14:54:51;8.43;;;5.70;;
7340;SDS011;6870;50.944;6.932;2022-10-13T14:57:19;10.20;;;6.07;;
7340;SDS011;6870;50.944;6.932;2022-10-13T14:59:47;16.50;;;6.57;;
7340;SDS011;6870;50.944;6.932;2022-10-13T15:02:15;12.25;;;6.30;;
7340;SDS011;6870;50.944;6.932;2022-10-13T15:04:43;13.77;;;5.67;;
7340;SDS011;6870;50.944;6.932;2022-10-13T15:07:13;11.33;;;5.80;;
7340;SDS011;6870;50.944;6.932;2022-10-13T15:09:41;8.37;;;5.70;;
7340;SDS011;6870;50.944;6.932;2022-10-13T15:12:26;13.07;;;6.53;;
7340;SDS011;6870;50.944;6.932;2022-10-13T15:14:54;17.47;;;6.20;;
7340;SDS011;6870;50.944;6.932;2022-10-13T15:17:22;8.53;;;5.50;;
7340;SDS011;6870;50.944;6.932;2022-10-13T15:19:50;7.63;;;5.07;;
7340;SDS011;6870;50.944;6.932;2022-10-13T15:22:19;10.90;;;4.83;;
7340;SDS011;6870;50.944;6.932;2022-10-13T15:24:48;10.17;;;5.47;;
7340;SDS011;6870;50.944;6.932;2022-10-13T15:27:16;7.53;;;5.43;;
7340;SDS011;6870;50.944;6.932;2022-10-13T15:29:44;8.17;;;5.00;;
7340;SDS011;6870;50.944;6.932;2022-10-13T15:32:13;13.90;;;5.67;;
7340;SDS011;6870;50.944;6.932;2022-10-13T15:34:44;12.67;;;5.00;;
7340;SDS011;6870;50.944;6.932;2022-10-13T15:37:12;11.27;;;5.53;;
7340;SDS011;6870;50.944;6.932;2022-10-13T15:39:42;5.30;;;4.80;;
7340;SDS011;6870;50.944;6.932;2022-10-13T15:42:10;8.53;;;5.07;;
7340;SDS011;6870;50.944;6.932;2022-10-13T15:44:38;10.40;;;5.10;;
7340;SDS011;6870;50.944;6.932;2022-10-13T15:47:26;7.77;;;4.70;;
7340;SDS011;6870;50.944;6.932;2022-10-13T15:49:54;8.83;;;5.07;;
7340;SDS011;6870;50.944;6.932;2022-10-13T15:52:23;6.20;;;4.10;;
7340;SDS011;6870;50.944;6.932;2022-10-13T15:54:58;6.57;;;4.90;;
7340;SDS011;6870;50.944;6.932;2022-10-13T15:57:27;7.13;;;4.27;;
7340;SDS011;6870;50.944;6.932;2022-10-13T15:59:57;9.37;;;4.87;;
7340;SDS011;6870;50.944;6.932;2022-10-13T16:02:25;12.10;;;4.80;;
7340;SDS011;6870;50.944;6.932;2022-10-13T16:04:53;6.80;;;4.00;;